createdAt,value
2019-01-15T00:00:23.402Z,2.00
2019-01-15T00:01:23.417Z,2.06
2019-01-15T00:02:23.365Z,2.08
2019-01-15T00:03:23.362Z,2.11
2019-01-15T00:04:23.348Z,2.04
2019-01-15T00:05:23.339Z,2.07
2019-01-15T00:06:23.330Z,2.10
2019-01-15T00:07:23.368Z,2.10
2019-01-15T00:08:23.303Z,2.08
2019-01-15T00:09:23.295Z,2.06
2019-01-15T00:10:23.287Z,2.04
2019-01-15T00:11:23.285Z,2.10
2019-01-15T00:12:23.322Z,2.11
2019-01-15T00:13:23.265Z,2.14
2019-01-15T00:14:23.255Z,2.20
2019-01-15T00:15:23.230Z,2.17
2019-01-15T00:16:23.219Z,2.17
2019-01-15T00:17:23.252Z,2.25
2019-01-15T00:18:23.332Z,2.18
2019-01-15T00:19:23.180Z,2.26
2019-01-15T00:20:23.187Z,2.18
2019-01-15T00:21:23.175Z,2.20
2019-01-15T00:22:23.160Z,2.32
2019-01-15T00:23:23.256Z,2.28
2019-01-15T00:24:23.135Z,2.29
2019-01-15T00:25:23.117Z,2.28
2019-01-15T00:26:23.111Z,2.29
2019-01-15T00:27:23.113Z,2.28
2019-01-15T00:28:23.087Z,2.25
2019-01-15T00:29:23.132Z,2.36
2019-01-15T00:30:23.101Z,2.35
2019-01-15T00:31:23.097Z,2.33
2019-01-15T00:32:23.054Z,2.35
2019-01-15T00:33:23.039Z,2.42
2019-01-15T00:34:23.057Z,2.38
2019-01-15T00:35:23.058Z,2.42
2019-01-15T00:36:23.017Z,2.42
2019-01-15T00:37:23.010Z,2.46
2019-01-15T00:38:22.987Z,2.39
2019-01-15T00:39:22.968Z,2.43
2019-01-15T00:40:23.020Z,2.51
2019-01-15T00:41:22.968Z,2.46
2019-01-15T00:42:22.933Z,2.49
2019-01-15T00:43:22.950Z,2.53
2019-01-15T00:44:22.926Z,2.50
2019-01-15T00:45:22.937Z,2.51
2019-01-15T00:46:22.994Z,2.42
2019-01-15T00:47:22.928Z,2.42
2019-01-15T00:48:22.877Z,2.39
2019-01-15T00:49:22.858Z,2.38
2019-01-15T00:50:22.877Z,2.38
2019-01-15T00:51:22.836Z,2.36
2019-01-15T00:52:22.887Z,2.33
2019-01-15T00:53:22.820Z,2.28
2019-01-15T00:54:22.966Z,2.31
2019-01-15T00:55:22.801Z,2.32
2019-01-15T00:56:22.793Z,2.33
2019-01-15T00:57:22.772Z,2.32
2019-01-15T00:58:23.693Z,2.29
2019-01-15T00:59:22.753Z,2.31
2019-01-15T01:00:22.780Z,2.31
2019-01-15T01:01:22.744Z,2.33
2019-01-15T01:02:22.734Z,2.29
2019-01-15T01:03:22.750Z,2.32
2019-01-15T01:04:22.713Z,2.36
2019-01-15T01:05:22.697Z,2.26
2019-01-15T01:06:22.676Z,2.33
2019-01-15T01:07:22.665Z,2.25
2019-01-15T01:08:22.659Z,2.29
2019-01-15T01:09:22.686Z,2.24
2019-01-15T01:10:22.673Z,2.28
2019-01-15T01:11:22.628Z,2.28
2019-01-15T01:12:22.617Z,2.22
2019-01-15T01:13:22.626Z,2.24
2019-01-15T01:14:22.637Z,2.24
2019-01-15T01:15:22.586Z,2.24
2019-01-15T01:16:22.582Z,2.31
2019-01-15T01:17:22.571Z,2.26
2019-01-15T01:18:22.552Z,2.35
2019-01-15T01:19:22.546Z,2.25
2019-01-15T01:20:22.578Z,2.32
2019-01-15T01:21:22.566Z,2.29
2019-01-15T01:22:22.517Z,2.29
2019-01-15T01:23:22.523Z,2.28
2019-01-15T01:24:22.484Z,2.35
2019-01-15T01:25:22.795Z,2.25
2019-01-15T01:26:22.488Z,2.26
2019-01-15T01:27:22.500Z,2.24
2019-01-15T01:28:22.452Z,2.31
2019-01-15T01:29:22.440Z,2.18
2019-01-15T01:30:22.445Z,2.22
2019-01-15T01:31:22.418Z,2.29
2019-01-15T01:32:22.400Z,2.31
2019-01-15T01:33:22.468Z,2.20
2019-01-15T01:34:22.395Z,2.26
2019-01-15T01:35:22.378Z,2.31
2019-01-15T01:36:22.388Z,2.29
2019-01-15T01:37:22.351Z,2.22
2019-01-15T01:38:22.345Z,2.22
2019-01-15T01:39:22.374Z,2.31
2019-01-15T01:40:22.314Z,2.32
2019-01-15T01:41:22.316Z,2.28
2019-01-15T01:42:29.247Z,2.35
2019-01-15T01:43:23.321Z,2.36
2019-01-15T01:44:22.313Z,2.38
2019-01-15T01:45:22.268Z,2.35
2019-01-15T01:46:22.252Z,2.44
2019-01-15T01:47:22.244Z,2.42
2019-01-15T01:48:22.239Z,2.44
2019-01-15T01:49:22.217Z,2.43
2019-01-15T01:50:22.285Z,2.38
2019-01-15T01:51:22.200Z,2.36
2019-01-15T01:52:22.207Z,2.42
2019-01-15T01:53:22.190Z,2.47
2019-01-15T01:54:22.164Z,2.36
2019-01-15T01:55:22.163Z,2.38
2019-01-15T01:56:22.210Z,2.42
2019-01-15T01:57:22.150Z,2.32
2019-01-15T01:58:22.126Z,2.35
2019-01-15T01:59:22.114Z,2.29
2019-01-15T02:00:22.109Z,2.31
2019-01-15T02:01:22.176Z,2.26
2019-01-15T02:02:22.076Z,2.29
2019-01-15T02:03:22.070Z,2.22
2019-01-15T02:04:22.069Z,2.26
2019-01-15T02:05:22.039Z,2.28
2019-01-15T02:06:22.048Z,2.32
2019-01-15T02:07:22.059Z,2.22
2019-01-15T02:08:22.008Z,2.25
2019-01-15T02:09:22.016Z,2.20
2019-01-15T02:10:22.005Z,2.26
2019-01-15T02:11:21.981Z,2.28
2019-01-15T02:12:22.034Z,2.28
2019-01-15T02:13:21.953Z,2.28
2019-01-15T02:14:21.950Z,2.18
2019-01-15T02:15:21.953Z,2.18
2019-01-15T02:16:21.930Z,2.26
2019-01-15T02:17:21.921Z,2.24
2019-01-15T02:18:21.948Z,2.22
2019-01-15T02:19:21.886Z,2.31
2019-01-15T02:20:21.881Z,2.22
2019-01-15T02:21:21.882Z,2.26
2019-01-15T02:22:21.881Z,2.36
2019-01-15T02:23:21.863Z,2.25
2019-01-15T02:24:21.876Z,2.32
2019-01-15T02:25:21.827Z,2.29
2019-01-15T02:26:21.882Z,2.39
2019-01-15T02:27:21.803Z,2.39
2019-01-15T02:28:21.844Z,2.47
2019-01-15T02:29:21.878Z,2.54
2019-01-15T02:30:21.782Z,2.57
2019-01-15T02:31:21.779Z,2.57
2019-01-15T02:32:21.793Z,2.64
2019-01-15T02:33:21.782Z,2.53
2019-01-15T02:34:21.749Z,2.64
2019-01-15T02:35:21.742Z,2.64
2019-01-15T02:36:21.715Z,2.67
2019-01-15T02:37:21.793Z,2.75
2019-01-15T02:38:21.700Z,2.71
2019-01-15T02:39:21.722Z,2.82
2019-01-15T02:40:21.673Z,2.72
2019-01-15T02:41:21.666Z,2.83
2019-01-15T02:42:21.652Z,2.79
2019-01-15T02:43:21.634Z,2.86
2019-01-15T02:44:24.176Z,2.82
2019-01-15T02:45:21.678Z,2.92
2019-01-15T02:46:21.607Z,2.90
2019-01-15T02:47:21.678Z,2.87
2019-01-15T02:48:21.597Z,2.87
2019-01-15T02:49:21.571Z,2.92
2019-01-15T02:50:21.604Z,2.98
2019-01-15T02:51:21.549Z,2.95
2019-01-15T02:52:21.537Z,2.97
2019-01-15T02:53:21.577Z,2.97
2019-01-15T02:54:21.536Z,2.95
2019-01-15T02:55:21.513Z,3.00
2019-01-15T02:56:21.526Z,3.00
2019-01-15T02:57:21.527Z,3.04
2019-01-15T02:58:21.490Z,3.00
2019-01-15T02:59:21.484Z,2.92
2019-01-15T03:00:21.449Z,3.01
2019-01-15T03:01:21.442Z,3.01
2019-01-15T03:02:21.440Z,2.93
2019-01-15T03:03:21.704Z,3.00
2019-01-15T03:04:21.416Z,2.92
2019-01-15T03:05:21.396Z,3.00
2019-01-15T03:06:21.388Z,2.92
2019-01-15T03:07:21.386Z,2.89
2019-01-15T03:08:21.393Z,2.89
2019-01-15T03:09:21.400Z,2.95
2019-01-15T03:10:21.347Z,2.85
2019-01-15T03:11:21.342Z,2.90
2019-01-15T03:12:21.457Z,2.82
2019-01-15T03:13:21.349Z,2.89
2019-01-15T03:14:21.337Z,2.85
2019-01-15T03:15:21.293Z,2.85
2019-01-15T03:16:21.283Z,2.75
2019-01-15T03:17:21.280Z,2.68
2019-01-15T03:18:21.275Z,2.71
2019-01-15T03:19:21.256Z,2.65
2019-01-15T03:20:21.274Z,2.61
2019-01-15T03:21:21.243Z,2.65
2019-01-15T03:22:21.213Z,2.53
2019-01-15T03:23:21.214Z,2.51
2019-01-15T03:24:21.204Z,2.49
2019-01-15T03:25:21.233Z,2.47
2019-01-15T03:26:21.161Z,2.46
2019-01-15T03:27:21.156Z,2.38
2019-01-15T03:28:21.147Z,2.42
2019-01-15T03:29:21.145Z,2.42
2019-01-15T03:30:21.146Z,2.49
2019-01-15T03:31:21.220Z,2.50
2019-01-15T03:32:21.116Z,2.42
2019-01-15T03:33:21.098Z,2.42
2019-01-15T03:34:21.079Z,2.35
2019-01-15T03:35:21.081Z,2.39
2019-01-15T03:36:21.078Z,2.35
2019-01-15T03:37:21.105Z,2.36
2019-01-15T03:38:21.048Z,2.28
2019-01-15T03:39:21.025Z,2.33
2019-01-15T03:40:21.019Z,2.18
2019-01-15T03:41:21.044Z,2.22
2019-01-15T03:42:20.992Z,2.22
2019-01-15T03:43:21.043Z,2.17
2019-01-15T03:44:20.999Z,2.24
2019-01-15T03:45:20.988Z,2.13
2019-01-15T03:46:20.997Z,2.13
2019-01-15T03:47:20.976Z,2.15
2019-01-15T03:48:20.928Z,2.13
2019-01-15T03:49:20.938Z,2.18
2019-01-15T03:50:20.919Z,2.15
2019-01-15T03:51:20.894Z,2.26
2019-01-15T03:52:20.925Z,2.20
2019-01-15T03:53:20.904Z,2.18
2019-01-15T03:54:20.874Z,2.38
2019-01-15T03:55:20.861Z,2.33
2019-01-15T03:56:20.893Z,2.32
2019-01-15T03:57:20.839Z,2.36
2019-01-15T03:58:20.847Z,2.39
2019-01-15T03:59:20.848Z,2.42
2019-01-15T04:00:20.857Z,2.46
2019-01-15T04:01:20.801Z,2.54
2019-01-15T04:02:20.777Z,2.57
2019-01-15T04:03:20.835Z,2.56
2019-01-15T04:04:20.766Z,2.60
2019-01-15T04:05:20.753Z,2.53
2019-01-15T04:06:20.785Z,2.67
2019-01-15T04:07:20.729Z,2.62
2019-01-15T04:08:20.709Z,2.67
2019-01-15T04:09:20.720Z,2.72
2019-01-15T04:10:20.701Z,2.74
2019-01-15T04:11:20.687Z,2.68
2019-01-15T04:12:20.721Z,2.82
2019-01-15T04:13:22.021Z,2.80
2019-01-15T04:14:20.648Z,2.77
2019-01-15T04:15:20.658Z,2.74
2019-01-15T04:16:20.631Z,2.80
2019-01-15T04:17:20.623Z,2.80
2019-01-15T04:18:20.807Z,2.80
2019-01-15T04:19:20.642Z,2.93
2019-01-15T04:20:20.591Z,2.82
2019-01-15T04:21:20.586Z,2.85
2019-01-15T04:22:20.586Z,2.85
2019-01-15T04:23:20.611Z,2.87
2019-01-15T04:24:20.538Z,2.83
2019-01-15T04:25:20.526Z,2.90
2019-01-15T04:26:20.527Z,2.79
2019-01-15T04:27:20.580Z,2.80
2019-01-15T04:28:20.542Z,2.72
2019-01-15T04:29:20.491Z,2.82
2019-01-15T04:30:20.496Z,2.68
2019-01-15T04:31:20.472Z,2.67
2019-01-15T04:32:20.461Z,2.68
2019-01-15T04:33:20.496Z,2.67
2019-01-15T04:34:20.431Z,2.67
2019-01-15T04:35:20.488Z,2.68
2019-01-15T04:36:20.416Z,2.69
2019-01-15T04:37:20.399Z,2.65
2019-01-15T04:38:20.403Z,2.62
2019-01-15T04:39:20.432Z,2.67
2019-01-15T04:40:20.382Z,2.67
2019-01-15T04:41:20.366Z,2.74
2019-01-15T04:42:20.358Z,2.79
2019-01-15T04:43:20.342Z,2.77
2019-01-15T04:44:20.327Z,2.80
2019-01-15T04:45:20.772Z,2.86
2019-01-15T04:46:20.316Z,2.85
2019-01-15T04:47:20.303Z,2.74
2019-01-15T04:48:20.288Z,2.87
2019-01-15T04:49:20.481Z,2.86
2019-01-15T04:50:20.273Z,2.85
2019-01-15T04:51:20.294Z,2.89
2019-01-15T04:52:20.247Z,2.90
2019-01-15T04:53:20.250Z,2.93
2019-01-15T04:54:20.224Z,3.00
2019-01-15T04:55:20.332Z,2.92
2019-01-15T04:56:20.198Z,2.97
2019-01-15T04:57:20.243Z,2.93
2019-01-15T04:58:20.193Z,3.04
2019-01-15T04:59:20.167Z,3.00
2019-01-15T05:00:20.167Z,2.92
2019-01-15T05:01:20.662Z,3.03
2019-01-15T05:02:20.174Z,3.01
2019-01-15T05:03:20.199Z,3.11
2019-01-15T05:04:20.121Z,3.10
2019-01-15T05:05:20.111Z,3.11
2019-01-15T05:06:20.111Z,3.14
2019-01-15T05:07:20.103Z,3.18
2019-01-15T05:08:20.071Z,3.14
2019-01-15T05:09:20.163Z,3.11
2019-01-15T05:10:20.060Z,3.14
2019-01-15T05:11:20.038Z,3.13
2019-01-15T05:12:20.039Z,3.14
2019-01-15T05:13:27.198Z,3.10
2019-01-15T05:14:21.080Z,3.18
2019-01-15T05:15:19.985Z,3.23
2019-01-15T05:16:20.013Z,3.18
2019-01-15T05:17:19.973Z,3.21
2019-01-15T05:18:19.957Z,3.16
2019-01-15T05:19:19.957Z,3.26
2019-01-15T05:20:20.010Z,3.26
2019-01-15T05:21:19.929Z,3.19
2019-01-15T05:22:19.923Z,3.23
2019-01-15T05:23:19.909Z,3.25
2019-01-15T05:24:19.890Z,3.28
2019-01-15T05:25:19.950Z,3.29
2019-01-15T05:26:19.946Z,3.28
2019-01-15T05:27:19.866Z,3.28
2019-01-15T05:28:19.853Z,3.31
2019-01-15T05:29:19.891Z,3.34
2019-01-15T05:30:19.830Z,3.36
2019-01-15T05:31:19.829Z,3.31
2019-01-15T05:32:19.806Z,3.26
2019-01-15T05:33:19.813Z,3.31
2019-01-15T05:34:19.800Z,3.34
2019-01-15T05:35:19.852Z,3.34
2019-01-15T05:36:19.826Z,3.40
2019-01-15T05:37:19.773Z,3.42
2019-01-15T05:38:19.738Z,3.32
2019-01-15T05:39:19.732Z,3.45
2019-01-15T05:40:19.730Z,3.44
2019-01-15T05:41:19.707Z,3.48
2019-01-15T05:42:19.749Z,3.45
2019-01-15T05:43:19.698Z,3.42
2019-01-15T05:44:19.719Z,3.41
2019-01-15T05:45:19.893Z,3.40
2019-01-15T05:46:19.658Z,3.41
2019-01-15T05:47:19.647Z,3.48
2019-01-15T05:48:19.731Z,3.47
2019-01-15T05:49:19.692Z,3.48
2019-01-15T05:50:19.617Z,3.48
2019-01-15T05:51:19.609Z,3.55
2019-01-15T05:52:19.599Z,3.56
2019-01-15T05:53:19.574Z,3.55
2019-01-15T05:54:19.578Z,3.56
2019-01-15T05:55:19.609Z,3.58
2019-01-15T05:56:19.552Z,3.55
2019-01-15T05:57:19.543Z,3.53
2019-01-15T05:58:19.526Z,3.56
2019-01-15T05:59:19.518Z,3.55
2019-01-15T06:00:19.514Z,3.59
2019-01-15T06:01:19.526Z,3.59
2019-01-15T06:02:19.502Z,3.56
2019-01-15T06:03:19.478Z,3.63
2019-01-15T06:04:19.461Z,3.65
2019-01-15T06:05:19.447Z,3.66
2019-01-15T06:06:19.440Z,3.59
2019-01-15T06:07:19.472Z,3.65
2019-01-15T06:08:19.431Z,3.65
2019-01-15T06:09:19.409Z,3.58
2019-01-15T06:10:19.393Z,3.70
2019-01-15T06:11:19.390Z,3.60
2019-01-15T06:12:19.383Z,3.69
2019-01-15T06:13:19.407Z,3.74
2019-01-15T06:14:19.365Z,3.68
2019-01-15T06:15:19.360Z,3.65
2019-01-15T06:16:19.342Z,3.68
2019-01-15T06:17:19.387Z,3.74
2019-01-15T06:18:19.325Z,3.70
2019-01-15T06:19:19.315Z,3.76
2019-01-15T06:21:30.640Z,3.77
2019-01-15T06:22:30.609Z,3.76
2019-01-15T06:23:30.618Z,3.74
2019-01-15T06:24:30.611Z,3.77
2019-01-15T06:25:30.563Z,3.70
2019-01-15T06:26:30.546Z,3.70
2019-01-15T06:27:30.537Z,3.70
2019-01-15T06:28:30.586Z,3.68
2019-01-15T06:29:30.532Z,3.70
2019-01-15T06:30:30.522Z,3.74
2019-01-15T06:31:30.508Z,3.74
2019-01-15T06:32:30.542Z,3.76
2019-01-15T06:33:30.523Z,3.77
2019-01-15T06:34:30.475Z,3.86
2019-01-15T06:35:30.487Z,3.83
2019-01-15T06:36:30.468Z,3.77
2019-01-15T06:37:30.443Z,3.77
2019-01-15T06:38:30.428Z,3.77
2019-01-15T06:39:30.421Z,3.86
2019-01-15T06:40:30.417Z,3.84
2019-01-15T06:41:30.429Z,3.84
2019-01-15T06:42:30.403Z,3.81
2019-01-15T06:43:30.386Z,3.86
2019-01-15T06:44:30.364Z,3.94
2019-01-15T06:45:31.323Z,3.95
2019-01-15T06:46:30.371Z,3.95
2019-01-15T06:47:30.339Z,3.86
2019-01-15T06:48:30.324Z,3.98
2019-01-15T06:49:30.323Z,3.95
2019-01-15T06:50:30.302Z,4.02
2019-01-15T06:51:30.307Z,3.98
2019-01-15T06:52:30.275Z,3.94
2019-01-15T06:53:30.271Z,4.02
2019-01-15T06:54:30.270Z,3.91
2019-01-15T06:55:30.255Z,3.92
2019-01-15T06:56:30.257Z,3.94
2019-01-15T06:57:30.258Z,3.99
2019-01-15T06:58:30.217Z,4.01
2019-01-15T06:59:30.211Z,3.98
2019-01-15T07:00:30.188Z,3.94
2019-01-15T07:01:30.179Z,3.92
2019-01-15T07:02:30.195Z,3.92
2019-01-15T07:03:30.172Z,3.92
2019-01-15T07:04:30.178Z,4.02
2019-01-15T07:05:30.153Z,3.96
2019-01-15T07:06:30.129Z,3.99
2019-01-15T07:07:30.146Z,3.99
2019-01-15T07:08:30.136Z,3.98
2019-01-15T07:09:30.095Z,3.94
2019-01-15T07:10:30.093Z,3.99
2019-01-15T07:11:30.071Z,3.98
2019-01-15T07:12:30.075Z,3.99
2019-01-15T07:13:30.058Z,4.01
2019-01-15T07:14:30.090Z,3.98
2019-01-15T07:15:30.034Z,3.99
2019-01-15T07:16:30.018Z,3.91
2019-01-15T07:17:30.009Z,3.94
2019-01-15T07:18:30.012Z,3.96
2019-01-15T07:19:29.990Z,3.95
2019-01-15T07:20:30.008Z,4.02
2019-01-15T07:21:30.116Z,4.02
2019-01-15T07:22:29.999Z,3.94
2019-01-15T07:23:29.951Z,3.92
2019-01-15T07:24:29.946Z,3.96
2019-01-15T07:25:29.958Z,3.83
2019-01-15T07:26:29.947Z,3.91
2019-01-15T07:27:29.942Z,3.88
2019-01-15T07:28:29.915Z,3.84
2019-01-15T07:29:29.883Z,3.83
2019-01-15T07:30:29.881Z,3.88
2019-01-15T07:31:29.886Z,3.95
2019-01-15T07:32:29.867Z,3.98
2019-01-15T07:33:29.863Z,3.98
2019-01-15T07:34:29.827Z,3.99
2019-01-15T07:35:29.812Z,3.96
2019-01-15T07:36:29.812Z,4.02
2019-01-15T07:37:29.794Z,4.01
2019-01-15T07:38:29.811Z,3.91
2019-01-15T07:39:29.783Z,4.02
2019-01-15T07:40:29.759Z,3.99
2019-01-15T07:41:29.774Z,3.95
2019-01-15T07:42:29.768Z,3.96
2019-01-15T07:43:29.726Z,3.94
2019-01-15T07:44:29.779Z,3.99
2019-01-15T07:45:29.723Z,4.04
2019-01-15T07:46:29.692Z,3.99
2019-01-15T07:47:29.697Z,4.02
2019-01-15T07:48:29.690Z,3.99
2019-01-15T07:49:29.668Z,4.01
2019-01-15T07:50:29.679Z,4.08
2019-01-15T07:51:29.681Z,4.02
2019-01-15T07:52:29.631Z,4.06
2019-01-15T07:53:29.632Z,4.17
2019-01-15T07:54:29.641Z,4.06
2019-01-15T07:55:29.627Z,4.13
2019-01-15T07:56:29.622Z,4.14
2019-01-15T07:57:29.599Z,4.10
2019-01-15T07:58:29.583Z,4.14
2019-01-15T07:59:29.591Z,4.13
2019-01-15T08:00:29.546Z,4.19
2019-01-15T08:01:29.538Z,4.17
2019-01-15T08:02:29.561Z,4.28
2019-01-15T08:03:29.520Z,4.31
2019-01-15T08:04:29.517Z,4.30
2019-01-15T08:05:29.519Z,4.16
2019-01-15T08:06:29.481Z,4.31
2019-01-15T08:07:29.478Z,4.19
2019-01-15T08:08:29.483Z,4.14
2019-01-15T08:09:29.492Z,4.28
2019-01-15T08:10:29.498Z,4.23
2019-01-15T08:11:29.442Z,4.20
2019-01-15T08:12:29.422Z,4.24
2019-01-15T08:13:29.410Z,4.19
2019-01-15T08:14:29.421Z,4.26
2019-01-15T08:15:29.411Z,4.24
2019-01-15T08:16:29.439Z,4.17
2019-01-15T08:17:29.385Z,4.30
2019-01-15T08:18:29.357Z,4.31
2019-01-15T08:19:29.349Z,4.16
2019-01-15T08:20:29.331Z,4.22
2019-01-15T08:21:30.880Z,4.26
2019-01-15T08:22:29.316Z,4.26
2019-01-15T08:23:29.307Z,4.19
2019-01-15T08:24:29.292Z,4.23
2019-01-15T08:25:29.288Z,4.23
2019-01-15T08:26:29.267Z,4.17
2019-01-15T08:27:29.289Z,4.24
2019-01-15T08:28:29.258Z,4.30
2019-01-15T08:29:29.246Z,4.26
2019-01-15T08:30:29.241Z,4.19
2019-01-15T08:31:29.213Z,4.17
2019-01-15T08:32:29.208Z,4.34
2019-01-15T08:33:29.221Z,4.23
2019-01-15T08:34:29.216Z,4.20
2019-01-15T08:35:29.168Z,4.20
2019-01-15T08:36:29.185Z,4.20
2019-01-15T08:37:29.149Z,4.26
2019-01-15T08:38:29.155Z,4.26
2019-01-15T08:39:29.126Z,4.30
2019-01-15T08:40:29.137Z,4.20
2019-01-15T08:41:29.120Z,4.24
2019-01-15T08:42:29.102Z,4.28
2019-01-15T08:43:29.101Z,4.19
2019-01-15T08:44:29.076Z,4.26
2019-01-15T08:45:29.058Z,4.17
2019-01-15T08:46:29.063Z,4.31
2019-01-15T08:47:29.065Z,4.20
2019-01-15T08:48:29.051Z,4.24
2019-01-15T08:49:29.037Z,4.23
2019-01-15T08:50:29.031Z,4.35
2019-01-15T08:51:29.000Z,4.38
2019-01-15T08:52:28.988Z,4.28
2019-01-15T08:53:28.988Z,4.34
2019-01-15T08:54:28.964Z,4.38
2019-01-15T08:55:28.952Z,4.37
2019-01-15T08:56:28.938Z,4.32
2019-01-15T08:57:28.935Z,4.34
2019-01-15T08:58:28.949Z,4.38
2019-01-15T08:59:28.911Z,4.37
2019-01-15T09:00:28.896Z,4.32
2019-01-15T09:01:28.897Z,4.38
2019-01-15T09:02:28.864Z,4.26
2019-01-15T09:03:28.876Z,4.34
2019-01-15T09:04:28.871Z,4.38
2019-01-15T09:05:28.890Z,4.37
2019-01-15T09:06:28.838Z,4.41
2019-01-15T09:07:28.814Z,4.37
2019-01-15T09:08:28.807Z,4.37
2019-01-15T09:09:28.799Z,4.26
2019-01-15T09:10:28.812Z,4.30
2019-01-15T09:11:30.496Z,4.38
2019-01-15T09:12:28.793Z,4.38
2019-01-15T09:13:28.749Z,4.35
2019-01-15T09:14:28.743Z,4.41
2019-01-15T09:15:28.720Z,4.40
2019-01-15T09:16:28.760Z,4.28
2019-01-15T09:17:28.710Z,4.34
2019-01-15T09:18:28.898Z,4.30
2019-01-15T09:19:28.734Z,4.37
2019-01-15T09:20:28.673Z,4.31
2019-01-15T09:21:28.691Z,4.40
2019-01-15T09:22:28.654Z,4.44
2019-01-15T09:23:28.643Z,4.40
2019-01-15T09:24:28.645Z,4.40
2019-01-15T09:25:28.621Z,4.48
2019-01-15T09:26:28.631Z,4.45
2019-01-15T09:27:28.621Z,4.42
2019-01-15T09:28:28.724Z,4.35
2019-01-15T09:29:28.595Z,4.44
2019-01-15T09:30:28.582Z,4.32
2019-01-15T09:31:28.551Z,4.34
2019-01-15T09:32:28.539Z,4.22
2019-01-15T09:33:28.525Z,4.28
2019-01-15T09:34:28.534Z,4.22
2019-01-15T09:35:28.513Z,4.37
2019-01-15T09:36:28.492Z,4.31
2019-01-15T09:37:28.496Z,4.31
2019-01-15T09:38:28.471Z,4.24
2019-01-15T09:39:28.458Z,4.26
2019-01-15T09:40:28.467Z,4.28
2019-01-15T09:41:28.455Z,4.28
2019-01-15T09:42:28.428Z,4.17
2019-01-15T09:43:28.427Z,4.26
2019-01-15T09:44:34.032Z,4.28
2019-01-15T09:45:29.426Z,4.42
2019-01-15T09:46:28.388Z,4.48
2019-01-15T09:47:28.375Z,4.60
2019-01-15T09:48:28.358Z,4.59
2019-01-15T09:49:28.379Z,4.58
2019-01-15T09:50:28.341Z,4.55
2019-01-15T09:51:28.344Z,4.59
2019-01-15T09:52:28.329Z,4.68
2019-01-15T09:53:28.332Z,4.73
2019-01-15T09:54:28.299Z,4.73
2019-01-15T09:55:28.322Z,4.56
2019-01-15T09:56:28.318Z,4.56
2019-01-15T09:57:28.266Z,4.53
2019-01-15T09:58:28.264Z,4.53
2019-01-15T09:59:28.277Z,4.49
2019-01-15T10:00:28.246Z,4.53
2019-01-15T10:01:28.277Z,4.50
2019-01-15T10:02:28.238Z,4.53
2019-01-15T10:03:28.201Z,4.48
2019-01-15T10:04:28.205Z,4.58
2019-01-15T10:05:28.177Z,4.56
2019-01-15T10:06:28.171Z,4.55
2019-01-15T10:07:28.213Z,4.59
2019-01-15T10:08:28.194Z,4.56
2019-01-15T10:09:28.142Z,4.55
2019-01-15T10:10:28.153Z,4.73
2019-01-15T10:11:28.136Z,4.70
2019-01-15T10:12:28.135Z,4.67
2019-01-15T10:13:28.111Z,4.68
2019-01-15T10:14:28.129Z,4.74
2019-01-15T10:15:28.084Z,4.75
2019-01-15T10:16:28.065Z,4.78
2019-01-15T10:17:28.057Z,4.80
2019-01-15T10:18:28.077Z,4.82
2019-01-15T10:19:28.018Z,4.73
2019-01-15T10:20:28.006Z,4.67
2019-01-15T10:21:28.002Z,4.73
2019-01-15T10:22:27.990Z,4.60
2019-01-15T10:23:27.989Z,4.67
2019-01-15T10:24:28.013Z,4.71
2019-01-15T10:25:27.979Z,4.70
2019-01-15T10:26:28.015Z,4.67
2019-01-15T10:27:27.944Z,4.67
2019-01-15T10:28:27.934Z,4.75
2019-01-15T10:29:27.936Z,4.80
2019-01-15T10:30:27.947Z,4.80
2019-01-15T10:31:27.889Z,4.82
2019-01-15T10:32:27.877Z,4.78
2019-01-15T10:33:27.882Z,4.80
2019-01-15T10:34:27.859Z,4.77
2019-01-15T10:35:27.845Z,4.89
2019-01-15T10:36:27.909Z,4.84
2019-01-15T10:37:27.847Z,4.90
2019-01-15T10:38:27.825Z,4.86
2019-01-15T10:39:27.807Z,4.86
2019-01-15T10:40:27.793Z,4.96
2019-01-15T10:41:27.785Z,4.90
2019-01-15T10:42:27.809Z,4.90
2019-01-15T10:43:27.787Z,4.99
2019-01-15T10:44:27.751Z,4.93
2019-01-15T10:45:27.749Z,5.02
2019-01-15T10:46:27.731Z,4.94
2019-01-15T10:47:27.714Z,5.04
2019-01-15T10:48:27.739Z,4.94
2019-01-15T10:49:27.710Z,5.00
2019-01-15T10:50:27.691Z,5.18
2019-01-15T10:51:27.678Z,5.10
2019-01-15T10:52:27.662Z,5.20
2019-01-15T10:53:27.652Z,5.25
2019-01-15T10:54:27.714Z,5.30
2019-01-15T10:55:27.636Z,5.25
2019-01-15T10:56:27.630Z,5.33
2019-01-15T10:57:27.613Z,5.32
2019-01-15T10:58:27.603Z,5.26
2019-01-15T10:59:27.609Z,5.28
2019-01-15T11:00:27.569Z,5.20
2019-01-15T11:01:27.579Z,5.23
2019-01-15T11:02:27.574Z,5.29
2019-01-15T11:03:27.573Z,5.38
2019-01-15T11:04:27.534Z,5.61
2019-01-15T11:05:27.547Z,5.71
2019-01-15T11:06:27.504Z,5.66
2019-01-15T11:07:27.502Z,5.65
2019-01-15T11:08:27.527Z,5.48
2019-01-15T11:09:27.486Z,5.54
2019-01-15T11:10:27.493Z,5.50
2019-01-15T11:11:27.475Z,5.38
2019-01-15T11:12:27.438Z,5.44
2019-01-15T11:13:27.438Z,5.46
2019-01-15T11:14:27.438Z,5.41
2019-01-15T11:15:27.407Z,5.51
2019-01-15T11:16:27.450Z,5.57
2019-01-15T11:17:27.393Z,5.62
2019-01-15T11:18:27.372Z,5.51
2019-01-15T11:19:27.382Z,5.46
2019-01-15T11:20:27.380Z,5.35
2019-01-15T11:21:27.345Z,5.36
2019-01-15T11:22:27.350Z,5.36
2019-01-15T11:23:27.332Z,5.36
2019-01-15T11:24:27.341Z,5.36
2019-01-15T11:25:27.304Z,5.36
2019-01-15T11:26:27.297Z,5.39
2019-01-15T11:27:27.317Z,5.48
2019-01-15T11:28:27.277Z,5.43
2019-01-15T11:29:27.256Z,5.41
2019-01-15T11:30:27.261Z,5.41
2019-01-15T11:31:27.250Z,5.41
2019-01-15T11:32:27.254Z,5.50
2019-01-15T11:33:27.234Z,5.46
2019-01-15T11:34:27.207Z,5.46
2019-01-15T11:35:27.200Z,5.46
2019-01-15T11:36:27.213Z,5.41
2019-01-15T11:37:27.198Z,5.43
2019-01-15T11:38:27.171Z,5.41
2019-01-15T11:39:27.173Z,5.33
2019-01-15T11:40:27.132Z,5.39
2019-01-15T11:41:27.182Z,5.32
2019-01-15T11:42:27.131Z,5.32
2019-01-15T11:43:27.117Z,5.26
2019-01-15T11:44:27.095Z,5.21
2019-01-15T11:45:27.091Z,5.18
2019-01-15T11:46:27.072Z,5.12
2019-01-15T11:47:27.118Z,5.17
2019-01-15T11:48:27.064Z,5.18
2019-01-15T11:49:27.035Z,5.20
2019-01-15T11:50:27.059Z,5.11
2019-01-15T11:51:27.026Z,5.10
2019-01-15T11:52:41.848Z,5.12
2019-01-15T11:53:27.029Z,5.07
2019-01-15T11:54:26.988Z,4.99
2019-01-15T11:55:26.974Z,5.00
2019-01-15T11:56:26.962Z,5.10
2019-01-15T11:57:26.948Z,5.07
2019-01-15T11:58:26.963Z,4.99
2019-01-15T11:59:26.964Z,5.02
2019-01-15T12:00:26.944Z,4.97
2019-01-15T12:01:26.907Z,5.05
2019-01-15T12:02:26.916Z,5.00
2019-01-15T12:03:26.893Z,4.99
2019-01-15T12:04:26.889Z,5.10
2019-01-15T12:05:26.891Z,5.02
2019-01-15T12:06:26.862Z,5.11
2019-01-15T12:07:26.868Z,5.08
2019-01-15T12:08:26.831Z,5.12
2019-01-15T12:09:26.825Z,5.17
2019-01-15T12:10:26.840Z,5.25
2019-01-15T12:11:26.829Z,5.25
2019-01-15T12:12:26.801Z,5.23
2019-01-15T12:13:26.807Z,5.23
2019-01-15T12:14:26.771Z,5.28
2019-01-15T12:15:26.770Z,5.32
2019-01-15T12:16:26.750Z,5.36
2019-01-15T12:17:26.768Z,5.35
2019-01-15T12:18:26.721Z,5.39
2019-01-15T12:19:26.751Z,5.33
2019-01-15T12:20:26.707Z,5.41
2019-01-15T12:21:26.711Z,5.44
2019-01-15T12:22:27.347Z,5.38
2019-01-15T12:23:26.683Z,5.50
2019-01-15T12:24:26.686Z,5.39
2019-01-15T12:25:26.668Z,5.53
2019-01-15T12:26:26.640Z,5.61
2019-01-15T12:27:26.640Z,5.48
2019-01-15T12:28:26.624Z,5.53
2019-01-15T12:29:26.627Z,5.54
2019-01-15T12:30:26.601Z,5.59
2019-01-15T12:31:26.652Z,5.57
2019-01-15T12:32:26.586Z,5.54
2019-01-15T12:33:26.577Z,5.59
2019-01-15T12:34:26.612Z,5.51
2019-01-15T12:35:26.564Z,5.43
2019-01-15T12:36:26.534Z,5.54
2019-01-15T12:37:26.521Z,5.46
2019-01-15T12:38:26.519Z,5.56
2019-01-15T12:39:26.497Z,5.54
2019-01-15T12:40:26.516Z,5.51
2019-01-15T12:41:26.473Z,5.53
2019-01-15T12:42:26.489Z,5.51
2019-01-15T12:43:26.458Z,5.53
2019-01-15T12:44:26.446Z,5.50
2019-01-15T12:45:27.407Z,5.56
2019-01-15T12:46:26.424Z,5.56
2019-01-15T12:47:26.410Z,5.57
2019-01-15T12:48:26.437Z,5.64
2019-01-15T12:49:26.393Z,5.61
2019-01-15T12:50:26.389Z,5.56
2019-01-15T12:51:26.370Z,5.46
2019-01-15T12:52:26.374Z,5.62
2019-01-15T12:53:26.352Z,5.56
2019-01-15T12:54:26.422Z,5.50
2019-01-15T12:55:26.338Z,5.51
2019-01-15T12:56:26.352Z,5.64
2019-01-15T12:57:26.296Z,5.54
2019-01-15T12:58:26.300Z,5.48
2019-01-15T12:59:26.283Z,5.46
2019-01-15T13:00:26.282Z,5.46
2019-01-15T13:01:26.277Z,5.51
2019-01-15T13:02:26.244Z,5.43
2019-01-15T13:03:26.236Z,5.48
2019-01-15T13:04:26.240Z,5.41
2019-01-15T13:05:26.213Z,5.39
2019-01-15T13:06:26.226Z,5.38
2019-01-15T13:07:26.208Z,5.41
2019-01-15T13:08:26.177Z,5.41
2019-01-15T13:09:26.184Z,5.39
2019-01-15T13:10:26.169Z,5.38
2019-01-15T13:11:26.180Z,5.38
2019-01-15T13:12:26.164Z,5.38
2019-01-15T13:13:26.127Z,5.38
2019-01-15T13:14:26.108Z,5.41
2019-01-15T13:15:34.297Z,5.43
2019-01-15T13:16:27.089Z,5.44
2019-01-15T13:17:26.130Z,5.44
2019-01-15T13:18:26.123Z,5.36
2019-01-15T13:19:26.055Z,5.38